Time,TemperatureF,DewpointF,PressureIn,WindDirection,WindDirectionDegrees,WindSpeedMPH,WindSpeedGustMPH,Humidity,HourlyPrecipIn,Conditions,Clouds,dailyrainin,SoftwareType,DateUTC
2013-01-11 00:02:00,47.1,46.6,29.00,South,180,0.0,0.0,98,0.00,,---,0.24,VWS V14.00,2013-01-11 06:02:00,
2013-01-11 00:05:00,47.1,46.6,29.00,SW,235,0.0,0.0,98,0.00,,---,0.00,VWS V14.00,2013-01-11 06:05:00,
2013-01-11 00:11:00,47.3,46.8,29.00,SW,235,0.0,0.0,98,0.00,,---,0.00,VWS V14.00,2013-01-11 06:11:00,
2013-01-11 00:24:00,47.5,46.9,29.00,SW,235,0.0,0.0,98,0.00,,---,0.00,VWS V14.00,2013-01-11 06:24:00,
2013-01-11 00:27:00,47.5,46.9,29.00,SW,235,0.0,0.0,98,0.00,,---,0.00,VWS V14.00,2013-01-11 06:27:00,
2013-01-11 00:30:00,47.6,47.1,29.00,SW,235,0.0,0.0,98,0.00,,---,0.00,VWS V14.00,2013-01-11 06:30:00,
2013-01-11 00:34:00,47.6,47.1,29.00,SW,235,0.0,0.0,98,0.00,,---,0.00,VWS V14.00,2013-01-11 06:34:00,
2013-01-11 00:39:00,47.6,47.1,29.00,SW,235,0.0,0.0,98,0.00,,---,0.00,VWS V14.00,2013-01-11 06:39:00,
2013-01-11 00:42:00,47.6,47.1,29.00,SW,235,0.0,0.0,98,0.00,,---,0.00,VWS V14.00,2013-01-11 06:42:00,
2013-01-11 00:45:00,47.6,47.1,29.00,SW,235,0.0,0.0,98,0.00,,---,0.00,VWS V14.00,2013-01-11 06:45:00,
2013-01-11 00:49:00,47.6,47.1,29.00,SW,235,0.0,0.0,98,0.00,,---,0.00,VWS V14.00,2013-01-11 06:49:00,
2013-01-11 00:51:00,47.6,47.1,29.00,SW,235,0.0,0.0,98,0.00,,---,0.00,VWS V14.00,2013-01-11 06:51:00,
2013-01-11 00:54:00,47.6,47.1,29.00,SW,235,0.0,0.0,98,0.00,,---,0.00,VWS V14.00,2013-01-11 06:54:00,
2013-01-11 00:57:00,47.6,47.1,29.00,SW,235,0.0,0.0,98,0.00,,---,0.00,VWS V14.00,2013-01-11 06:57:00,
2013-01-11 01:00:00,47.6,47.1,29.00,SW,235,0.0,0.0,98,0.00,,---,0.00,VWS V14.00,2013-01-11 07:00:00,
2013-01-11 01:03:00,47.6,47.1,29.00,SW,235,0.0,0.0,98,0.00,,---,0.00,VWS V14.00,2013-01-11 07:03:00,
2013-01-11 01:09:00,47.6,47.1,29.00,SW,235,0.0,0.0,98,0.00,,---,0.00,VWS V14.00,2013-01-11 07:09:00,
2013-01-11 01:15:00,47.6,47.1,29.00,SW,235,0.0,0.0,98,0.00,,---,0.00,VWS V14.00,2013-01-11 07:15:00,
2013-01-11 01:18:00,47.6,47.1,29.00,SW,235,0.0,0.0,98,0.00,,---,0.00,VWS V14.00,2013-01-11 07:18:00,
2013-01-11 01:21:00,47.6,47.1,29.00,SW,235,0.0,0.0,98,0.00,,---,0.00,VWS V14.00,2013-01-11 07:21:00,
2013-01-11 01:24:00,47.6,47.1,29.00,SW,235,0.0,0.0,98,0.00,,---,0.00,VWS V14.00,2013-01-11 07:24:00,
2013-01-11 01:27:00,47.6,47.1,29.00,SW,235,0.0,0.0,98,0.00,,---,0.00,VWS V14.00,2013-01-11 07:27:00,
2013-01-11 01:30:00,47.6,47.1,29.00,SW,235,0.0,0.0,98,0.00,,---,0.00,VWS V14.00,2013-01-11 07:30:00,
2013-01-11 01:33:00,47.6,47.1,29.00,SW,235,0.0,0.0,98,0.00,,---,0.00,VWS V14.00,2013-01-11 07:33:00,
2013-01-11 01:34:00,47.6,47.1,29.00,SW,235,0.0,0.0,98,0.00,,---,0.00,VWS V14.00,2013-01-11 07:34:00,
2013-01-11 01:39:00,47.6,47.1,29.00,SW,235,0.0,0.0,98,0.00,,---,0.00,VWS V14.00,2013-01-11 07:39:00,
2013-01-11 01:45:00,47.6,47.1,29.00,SW,235,0.0,0.0,98,0.00,,---,0.00,VWS V14.00,2013-01-11 07:45:00,
2013-01-11 01:48:00,47.6,47.1,29.00,SW,235,0.0,0.0,98,0.00,,---,0.00,VWS V14.00,2013-01-11 07:48:00,
2013-01-11 01:54:00,47.6,47.1,29.00,SW,235,0.0,0.0,98,0.00,,---,0.00,VWS V14.00,2013-01-11 07:54:00,
2013-01-11 02:00:00,47.6,47.1,29.00,SW,235,0.0,0.0,98,0.00,,---,0.00,VWS V14.00,2013-01-11 08:00:00,
2013-01-11 02:04:00,46.2,45.7,29.00,SW,235,0.0,0.0,98,0.00,,---,0.00,VWS V14.00,2013-01-11 08:04:00,
2013-01-11 02:09:00,46.0,45.5,29.03,SW,235,0.0,0.0,98,0.00,,---,0.00,VWS V14.00,2013-01-11 08:09:00,
2013-01-11 02:12:00,46.0,45.5,29.03,SW,235,0.0,0.0,98,0.00,,---,0.00,VWS V14.00,2013-01-11 08:12:00,
2013-01-11 02:15:00,46.0,45.5,29.03,SW,235,0.0,0.0,98,0.00,,---,0.00,VWS V14.00,2013-01-11 08:15:00,
2013-01-11 02:18:00,46.0,45.5,29.03,SW,235,0.0,0.0,98,0.00,,---,0.00,VWS V14.00,2013-01-11 08:18:00,
2013-01-11 02:21:00,46.0,45.5,29.03,SW,235,0.0,0.0,98,0.00,,---,0.00,VWS V14.00,2013-01-11 08:21:00,
2013-01-11 02:24:00,46.0,45.5,29.03,SW,235,2.7,2.7,98,0.00,,---,0.00,VWS V14.00,2013-01-11 08:24:00,
2013-01-11 02:27:00,46.0,45.5,29.03,SSW,192,0.0,2.7,98,0.00,,---,0.00,VWS V14.00,2013-01-11 08:27:00,
2013-01-11 02:30:00,45.8,45.3,29.03,SSW,203,0.0,2.7,98,0.00,,---,0.00,VWS V14.00,2013-01-11 08:30:00,
2013-01-11 02:34:00,45.8,45.3,29.03,SSW,211,0.0,2.7,98,0.00,,---,0.00,VWS V14.00,2013-01-11 08:34:00,
2013-01-11 02:36:00,45.8,45.3,29.03,SSW,211,0.0,0.0,98,0.00,,---,0.00,VWS V14.00,2013-01-11 08:36:00,
2013-01-11 02:39:00,45.8,45.3,29.03,East,101,0.0,0.0,98,0.00,,---,0.00,VWS V14.00,2013-01-11 08:39:00,
2013-01-11 02:42:00,45.8,45.3,29.03,East,101,0.0,0.0,98,0.00,,---,0.00,VWS V14.00,2013-01-11 08:42:00,
2013-01-11 02:48:00,45.7,45.1,29.03,East,101,0.0,0.0,98,0.00,,---,0.00,VWS V14.00,2013-01-11 08:48:00,
2013-01-11 02:49:00,45.7,45.1,29.03,East,101,0.0,0.0,98,0.00,,---,0.00,VWS V14.00,2013-01-11 08:49:00,
2013-01-11 02:51:00,45.7,45.1,29.03,SSW,197,0.0,0.0,98,0.00,,---,0.00,VWS V14.00,2013-01-11 08:51:00,
2013-01-11 02:54:00,45.8,45.3,29.03,SSW,197,0.0,0.0,98,0.00,,---,0.00,VWS V14.00,2013-01-11 08:54:00,
2013-01-11 02:57:00,45.8,45.3,29.03,SSW,197,0.0,0.0,98,0.00,,---,0.00,VWS V14.00,2013-01-11 08:57:00,
2013-01-11 03:00:00,45.8,45.3,29.03,SSW,197,0.0,0.0,98,0.00,,---,0.00,VWS V14.00,2013-01-11 09:00:00,
2013-01-11 03:04:00,45.8,45.3,29.03,SSW,197,0.0,0.0,98,0.00,,---,0.00,VWS V14.00,2013-01-11 09:04:00,
2013-01-11 03:07:00,45.8,45.3,29.03,SSW,197,0.0,0.0,98,0.00,,---,0.00,VWS V14.00,2013-01-11 09:07:00,
2013-01-11 03:13:00,45.8,45.3,29.03,SSW,197,0.0,0.0,98,0.00,,---,0.00,VWS V14.00,2013-01-11 09:13:00,
2013-01-11 03:16:00,45.8,45.3,29.03,SSW,197,0.0,0.0,98,0.00,,---,0.00,VWS V14.00,2013-01-11 09:16:00,
2013-01-11 03:22:00,45.5,45.0,29.03,SSW,197,0.0,0.0,98,0.00,,---,0.00,VWS V14.00,2013-01-11 09:22:00,
2013-01-11 03:28:00,45.5,45.0,29.03,SSW,198,0.0,0.0,98,0.00,,---,0.00,VWS V14.00,2013-01-11 09:28:00,
2013-01-11 03:51:00,45.5,45.0,29.03,SW,227,0.0,0.0,98,0.00,,---,0.00,VWS V14.00,2013-01-11 09:51:00,
2013-01-11 03:57:00,45.3,44.8,29.03,SW,227,0.0,0.0,98,0.00,,---,0.00,VWS V14.00,2013-01-11 09:57:00,
2013-01-11 04:03:00,45.3,44.8,29.03,SW,227,0.0,0.0,98,0.00,,---,0.00,VWS V14.00,2013-01-11 10:03:00,
2013-01-11 04:04:00,45.3,44.8,29.03,SW,227,0.0,0.0,98,0.00,,---,0.00,VWS V14.00,2013-01-11 10:04:00,
2013-01-11 04:09:00,45.3,44.8,29.03,SW,227,0.0,0.0,98,0.00,,---,0.00,VWS V14.00,2013-01-11 10:09:00,
2013-01-11 04:15:00,45.3,44.8,29.03,SW,227,0.0,0.0,98,0.00,,---,0.00,VWS V14.00,2013-01-11 10:15:00,
2013-01-11 04:19:00,45.3,44.8,29.03,SW,227,0.0,0.0,98,0.00,,---,0.00,VWS V14.00,2013-01-11 10:19:00,
2013-01-11 04:27:00,45.3,44.5,29.03,SW,227,0.0,0.0,97,0.00,,---,0.00,VWS V14.00,2013-01-11 10:27:00,
2013-01-11 04:30:00,45.1,44.3,29.03,SW,227,0.0,0.0,97,0.00,,---,0.00,VWS V14.00,2013-01-11 10:30:00,
2013-01-11 04:33:00,45.1,44.3,29.03,SW,227,0.0,0.0,97,0.00,,---,0.00,VWS V14.00,2013-01-11 10:33:00,
2013-01-11 04:34:00,45.1,44.3,29.03,SW,227,0.0,0.0,97,0.00,,---,0.00,VWS V14.00,2013-01-11 10:34:00,
2013-01-11 04:36:00,45.1,44.3,29.03,SW,227,0.0,0.0,97,0.00,,---,0.00,VWS V14.00,2013-01-11 10:36:00,
2013-01-11 04:42:00,44.8,44.0,29.00,SW,227,0.0,0.0,97,0.00,,---,0.00,VWS V14.00,2013-01-11 10:42:00,
2013-01-11 04:48:00,44.8,44.0,29.00,SW,227,0.0,0.0,97,0.00,,---,0.00,VWS V14.00,2013-01-11 10:48:00,
2013-01-11 04:49:00,44.8,44.0,29.00,SW,227,0.0,0.0,97,0.00,,---,0.00,VWS V14.00,2013-01-11 10:49:00,
2013-01-11 04:51:00,44.8,44.0,29.00,SW,227,0.0,0.0,97,0.00,,---,0.00,VWS V14.00,2013-01-11 10:51:00,
2013-01-11 04:57:00,44.6,43.8,29.00,SW,227,0.0,0.0,97,0.00,,---,0.00,VWS V14.00,2013-01-11 10:57:00,
2013-01-11 05:00:00,44.6,43.8,29.00,SW,227,0.0,0.0,97,0.00,,---,0.00,VWS V14.00,2013-01-11 11:00:00,
2013-01-11 05:03:00,44.4,43.6,29.00,South,182,2.7,3.1,97,0.00,,---,0.00,VWS V14.00,2013-01-11 11:03:00,
2013-01-11 05:04:00,44.4,43.6,29.00,South,179,5.4,5.4,97,0.00,,---,0.00,VWS V14.00,2013-01-11 11:04:00,
2013-01-11 05:12:00,44.4,43.6,29.00,South,184,4.0,5.4,97,0.00,,---,0.00,VWS V14.00,2013-01-11 11:12:00,
2013-01-11 05:15:00,44.4,43.6,29.00,South,185,5.4,5.4,97,0.00,,---,0.00,VWS V14.00,2013-01-11 11:15:00,
2013-01-11 05:18:00,44.4,43.6,29.00,South,180,4.9,5.4,97,0.00,,---,0.00,VWS V14.00,2013-01-11 11:18:00,
2013-01-11 05:21:00,44.2,43.4,29.00,South,180,4.9,4.9,97,0.00,,---,0.00,VWS V14.00,2013-01-11 11:21:00,
2013-01-11 05:27:00,44.4,43.6,29.00,South,184,3.6,4.9,97,0.00,,---,0.00,VWS V14.00,2013-01-11 11:27:00,
2013-01-11 05:30:00,44.4,43.6,29.00,South,171,0.0,4.9,97,0.00,,---,0.00,VWS V14.00,2013-01-11 11:30:00,
2013-01-11 05:34:00,44.2,43.4,29.00,South,171,0.0,4.9,97,0.00,,---,0.00,VWS V14.00,2013-01-11 11:34:00,
2013-01-11 05:36:00,44.2,43.4,29.00,South,171,2.2,2.2,97,0.00,,---,0.00,VWS V14.00,2013-01-11 11:36:00,
2013-01-11 05:42:00,44.2,43.4,29.00,South,171,0.0,2.7,97,0.00,,---,0.00,VWS V14.00,2013-01-11 11:42:00,
2013-01-11 05:45:00,44.2,43.4,29.00,South,171,0.0,2.7,97,0.00,,---,0.00,VWS V14.00,2013-01-11 11:45:00,
2013-01-11 05:48:00,44.4,43.6,29.00,South,171,0.0,2.7,97,0.00,,---,0.00,VWS V14.00,2013-01-11 11:48:00,
2013-01-11 05:51:00,44.4,43.6,29.00,South,171,0.0,0.0,97,0.00,,---,0.00,VWS V14.00,2013-01-11 11:51:00,
2013-01-11 05:57:00,44.2,43.4,29.00,South,171,0.0,2.7,97,0.00,,---,0.00,VWS V14.00,2013-01-11 11:57:00,
2013-01-11 06:03:00,44.2,43.4,29.00,South,171,0.0,2.7,97,0.00,,---,0.00,VWS V14.00,2013-01-11 12:03:00,
2013-01-11 06:04:00,44.2,43.4,29.00,South,180,0.0,2.7,97,0.00,,---,0.00,VWS V14.00,2013-01-11 12:04:00,
2013-01-11 06:09:00,44.2,43.4,29.00,South,184,4.0,4.0,97,0.00,,---,0.00,VWS V14.00,2013-01-11 12:09:00,
2013-01-11 06:12:00,44.2,43.4,29.00,SE,138,0.0,4.0,97,0.00,,---,0.00,VWS V14.00,2013-01-11 12:12:00,
2013-01-11 06:15:00,44.2,43.4,29.03,South,169,0.0,4.0,97,0.00,,---,0.00,VWS V14.00,2013-01-11 12:15:00,
2013-01-11 06:18:00,44.2,43.4,29.03,South,169,0.0,4.0,97,0.00,,---,0.00,VWS V14.00,2013-01-11 12:18:00,
2013-01-11 06:21:00,44.2,43.4,29.03,South,169,0.0,0.0,97,0.00,,---,0.00,VWS V14.00,2013-01-11 12:21:00,
2013-01-11 06:24:00,44.2,43.4,29.03,South,169,0.0,0.0,97,0.00,,---,0.00,VWS V14.00,2013-01-11 12:24:00,
2013-01-11 06:27:00,44.0,43.2,29.03,South,169,0.0,0.0,97,0.00,,---,0.00,VWS V14.00,2013-01-11 12:27:00,
2013-01-11 06:33:00,44.0,43.2,29.03,South,169,0.0,0.0,97,0.00,,---,0.00,VWS V14.00,2013-01-11 12:33:00,
2013-01-11 06:34:00,44.0,43.2,29.03,South,169,0.0,0.0,97,0.00,,---,0.00,VWS V14.00,2013-01-11 12:34:00,
2013-01-11 06:36:00,44.0,43.2,29.03,South,169,0.0,0.0,97,0.00,,---,0.00,VWS V14.00,2013-01-11 12:36:00,
2013-01-11 06:39:00,43.9,43.1,29.03,South,169,0.0,2.2,97,0.00,,---,0.00,VWS V14.00,2013-01-11 12:39:00,
2013-01-11 06:45:00,43.9,43.1,29.03,South,169,0.0,2.2,97,0.00,,---,0.00,VWS V14.00,2013-01-11 12:45:00,
2013-01-11 06:48:00,43.9,43.1,29.03,South,169,0.0,2.2,97,0.00,,---,0.00,VWS V14.00,2013-01-11 12:48:00,
2013-01-11 06:51:00,43.7,42.9,29.03,South,169,0.0,0.0,97,0.00,,---,0.00,VWS V14.00,2013-01-11 12:51:00,
2013-01-11 06:54:00,43.7,42.9,29.03,SSE,160,4.0,4.0,97,0.00,,---,0.00,VWS V14.00,2013-01-11 12:54:00,
2013-01-11 07:00:00,43.7,42.9,29.00,SSE,154,2.7,4.0,97,0.00,,---,0.00,VWS V14.00,2013-01-11 13:00:00,
2013-01-11 07:03:00,43.5,42.7,29.00,SSE,154,2.2,4.0,97,0.00,,---,0.00,VWS V14.00,2013-01-11 13:03:00,
2013-01-11 07:04:00,43.5,42.7,29.00,SSE,154,2.2,4.0,97,0.00,,---,0.00,VWS V14.00,2013-01-11 13:04:00,
2013-01-11 07:09:00,43.5,42.7,29.00,SSE,154,0.0,2.2,97,0.00,,---,0.00,VWS V14.00,2013-01-11 13:09:00,
2013-01-11 07:12:00,43.5,42.7,29.00,SSE,154,0.0,2.2,97,0.00,,---,0.00,VWS V14.00,2013-01-11 13:12:00,
2013-01-11 07:15:00,43.5,42.7,29.03,SSE,154,0.0,2.2,97,0.00,,---,0.00,VWS V14.00,2013-01-11 13:15:00,
2013-01-11 07:18:00,43.3,42.5,29.03,SSE,154,0.0,2.2,97,0.00,,---,0.00,VWS V14.00,2013-01-11 13:18:00,
2013-01-11 07:24:00,43.3,42.5,29.03,SSE,154,0.0,0.0,97,0.00,,---,0.00,VWS V14.00,2013-01-11 13:24:00,
2013-01-11 07:30:00,43.1,42.3,29.03,SSE,154,0.0,0.0,97,0.00,,---,0.00,VWS V14.00,2013-01-11 13:30:00,
2013-01-11 07:33:00,43.1,42.3,29.03,SSE,154,0.0,0.0,97,0.00,,---,0.00,VWS V14.00,2013-01-11 13:33:00,
2013-01-11 07:39:00,43.1,42.3,29.03,SSE,154,0.0,0.0,97,0.00,,---,0.00,VWS V14.00,2013-01-11 13:39:00,
2013-01-11 07:42:00,43.3,42.5,29.03,SSE,154,0.0,0.0,97,0.00,,---,0.00,VWS V14.00,2013-01-11 13:42:00,
2013-01-11 07:48:00,43.3,42.5,29.03,South,179,2.7,2.7,97,0.00,,---,0.00,VWS V14.00,2013-01-11 13:48:00,
2013-01-11 07:49:00,43.3,42.5,29.03,South,179,2.7,2.7,97,0.00,,---,0.00,VWS V14.00,2013-01-11 13:49:00,
2013-01-11 07:54:00,43.5,42.7,29.03,SE,133,2.7,2.7,97,0.00,,---,0.00,VWS V14.00,2013-01-11 13:54:00,
2013-01-11 07:58:00,43.7,42.9,29.03,SE,144,3.1,4.0,97,0.00,,---,0.00,VWS V14.00,2013-01-11 13:58:00,
2013-01-11 08:01:00,43.9,43.1,29.03,SE,144,3.1,4.0,97,0.00,,---,0.00,VWS V14.00,2013-01-11 14:01:00,
2013-01-11 08:07:00,43.9,43.1,29.03,SSE,167,3.6,4.0,97,0.00,,---,0.00,VWS V14.00,2013-01-11 14:07:00,
2013-01-11 08:10:00,44.0,43.2,29.03,South,169,2.7,4.0,97,0.00,,---,0.00,VWS V14.00,2013-01-11 14:10:00,
2013-01-11 08:13:00,44.0,43.2,29.03,South,169,3.1,4.0,97,0.00,,---,0.00,VWS V14.00,2013-01-11 14:13:00,
2013-01-11 08:16:00,44.0,43.2,29.03,South,169,3.1,4.0,97,0.00,,---,0.00,VWS V14.00,2013-01-11 14:16:00,
2013-01-11 08:19:00,44.0,43.2,29.03,SSE,150,4.0,4.0,97,0.00,,---,0.00,VWS V14.00,2013-01-11 14:19:00,
2013-01-11 08:22:00,44.0,43.2,29.03,SSE,159,4.5,4.5,97,0.00,,---,0.00,VWS V14.00,2013-01-11 14:22:00,
2013-01-11 08:28:00,44.4,43.6,29.03,SSE,163,0.0,4.5,97,0.00,,---,0.00,VWS V14.00,2013-01-11 14:28:00,
2013-01-11 08:31:00,44.4,43.6,29.03,SSE,159,5.8,5.8,97,0.00,,---,0.00,VWS V14.00,2013-01-11 14:31:00,
2013-01-11 08:34:00,44.8,44.0,29.03,SSE,153,7.2,8.3,97,0.00,,---,0.00,VWS V14.00,2013-01-11 14:34:00,
2013-01-11 08:37:00,44.9,44.1,29.03,South,179,8.3,8.3,97,0.00,,---,0.00,VWS V14.00,2013-01-11 14:37:00,
2013-01-11 08:40:00,44.9,44.1,29.03,South,185,8.1,8.3,97,0.00,,---,0.00,VWS V14.00,2013-01-11 14:40:00,
2013-01-11 08:43:00,45.5,44.7,29.03,South,185,8.1,8.3,97,0.00,,---,0.00,VWS V14.00,2013-01-11 14:43:00,
2013-01-11 08:46:00,45.5,44.7,29.03,ESE,119,8.1,10.1,97,0.00,,---,0.00,VWS V14.00,2013-01-11 14:46:00,
2013-01-11 08:49:00,45.7,44.9,29.03,SSE,161,8.7,10.1,97,0.00,,---,0.00,VWS V14.00,2013-01-11 14:49:00,
2013-01-11 08:55:00,45.8,45.0,29.03,SSE,150,11.0,11.0,97,0.00,,---,0.00,VWS V14.00,2013-01-11 14:55:00,
2013-01-11 08:58:00,45.8,45.0,29.03,SSE,150,11.0,11.0,97,0.00,,---,0.00,VWS V14.00,2013-01-11 14:58:00,
2013-01-11 09:01:00,46.2,45.1,29.03,SSE,148,7.6,11.0,96,0.00,,---,0.00,VWS V14.00,2013-01-11 15:01:00,
2013-01-11 09:04:00,46.2,45.1,29.03,SSE,166,8.1,11.0,96,0.00,,---,0.00,VWS V14.00,2013-01-11 15:04:00,
2013-01-11 09:07:00,46.2,45.1,29.03,SSE,150,8.7,8.7,96,0.00,,---,0.00,VWS V14.00,2013-01-11 15:07:00,
2013-01-11 09:13:00,46.6,45.5,29.03,SSE,161,8.1,8.7,96,0.00,,---,0.00,VWS V14.00,2013-01-11 15:13:00,
2013-01-11 09:16:00,46.6,45.5,29.03,SSE,161,8.1,8.7,96,0.00,,---,0.00,VWS V14.00,2013-01-11 15:16:00,
2013-01-11 09:19:00,47.1,45.7,29.03,South,179,8.1,8.7,95,0.00,,---,0.00,VWS V14.00,2013-01-11 15:19:00,
2013-01-11 09:25:00,47.1,45.7,29.03,South,173,8.3,9.2,95,0.00,,---,0.00,VWS V14.00,2013-01-11 15:25:00,
2013-01-11 09:28:00,47.6,46.3,29.03,SSE,166,8.7,9.2,95,0.00,,---,0.00,VWS V14.00,2013-01-11 15:28:00,
2013-01-11 09:34:00,47.8,46.2,29.03,South,170,10.1,10.1,94,0.00,,---,0.00,VWS V14.00,2013-01-11 15:34:00,
2013-01-11 09:37:00,47.8,46.2,29.03,South,177,8.7,8.7,94,0.00,,---,0.00,VWS V14.00,2013-01-11 15:37:00,
2013-01-11 09:43:00,47.8,45.9,29.03,South,169,8.7,10.5,93,0.00,,---,0.00,VWS V14.00,2013-01-11 15:43:00,
2013-01-11 09:49:00,47.8,45.9,29.03,SSE,158,8.7,10.5,93,0.00,,---,0.00,VWS V14.00,2013-01-11 15:49:00,
2013-01-11 09:55:00,48.0,45.8,29.03,SSE,161,8.1,9.6,92,0.00,,---,0.00,VWS V14.00,2013-01-11 15:55:00,
2013-01-11 10:01:00,48.5,46.3,29.03,South,173,8.7,9.6,92,0.00,,---,0.00,VWS V14.00,2013-01-11 16:01:00,
2013-01-11 10:04:00,48.7,46.5,29.03,SSE,147,8.7,9.6,92,0.00,,---,0.00,VWS V14.00,2013-01-11 16:04:00,
2013-01-11 10:07:00,49.1,46.6,29.03,SSE,168,7.6,8.7,91,0.00,,---,0.00,VWS V14.00,2013-01-11 16:07:00,
2013-01-11 10:10:00,49.1,46.6,29.03,SSE,163,7.6,8.7,91,0.00,,---,0.00,VWS V14.00,2013-01-11 16:10:00,
2013-01-11 10:13:00,49.1,46.6,29.03,SSE,162,6.3,8.7,91,0.00,,---,0.00,VWS V14.00,2013-01-11 16:13:00,
2013-01-11 10:16:00,49.1,46.3,29.03,SSE,162,6.3,8.7,90,0.00,,---,0.00,VWS V14.00,2013-01-11 16:16:00,
2013-01-11 10:19:00,49.1,46.3,29.03,SE,136,5.8,8.7,90,0.00,,---,0.00,VWS V14.00,2013-01-11 16:19:00,
2013-01-11 10:22:00,49.3,46.2,29.03,SSE,167,8.1,8.1,89,0.00,,---,0.00,VWS V14.00,2013-01-11 16:22:00,
2013-01-11 10:25:00,49.3,46.2,29.03,SSE,164,7.6,8.1,89,0.00,,---,0.00,VWS V14.00,2013-01-11 16:25:00,
2013-01-11 10:28:00,49.3,46.2,29.03,SSE,151,7.6,8.7,89,0.00,,---,0.00,VWS V14.00,2013-01-11 16:28:00,
2013-01-11 10:31:00,49.3,46.2,29.03,SE,140,6.7,8.7,89,0.00,,---,0.00,VWS V14.00,2013-01-11 16:31:00,
2013-01-11 10:34:00,49.3,46.2,29.03,SSE,165,8.1,8.7,89,0.00,,---,0.00,VWS V14.00,2013-01-11 16:34:00,
2013-01-11 10:40:00,49.8,46.4,29.03,SSE,164,8.3,8.3,88,0.00,,---,0.00,VWS V14.00,2013-01-11 16:40:00,
2013-01-11 10:43:00,49.8,46.4,29.03,South,172,8.7,8.7,88,0.00,,---,0.00,VWS V14.00,2013-01-11 16:43:00,
2013-01-11 10:49:00,50.0,46.3,29.03,SSE,168,7.6,8.7,87,0.00,,---,0.00,VWS V14.00,2013-01-11 16:49:00,
2013-01-11 10:55:00,50.0,46.3,29.03,SE,136,8.3,8.3,87,0.00,,---,0.00,VWS V14.00,2013-01-11 16:55:00,
2013-01-11 10:58:00,50.0,46.0,29.03,SSE,155,8.3,8.3,86,0.00,,---,0.00,VWS V14.00,2013-01-11 16:58:00,
2013-01-11 11:01:00,50.0,46.0,29.03,SSE,156,8.1,8.3,86,0.00,,---,0.00,VWS V14.00,2013-01-11 17:01:00,
2013-01-11 11:04:00,50.3,46.6,29.03,SE,144,6.3,8.3,87,0.00,,---,0.00,VWS V14.00,2013-01-11 17:04:00,
2013-01-11 11:07:00,50.5,46.8,29.03,SSE,161,7.6,8.7,87,0.00,,---,0.00,VWS V14.00,2013-01-11 17:07:00,
2013-01-11 11:10:00,50.5,46.8,29.03,SSE,162,6.3,8.7,87,0.00,,---,0.00,VWS V14.00,2013-01-11 17:10:00,
2013-01-11 11:13:00,50.5,46.8,29.00,SSE,162,6.3,8.7,87,0.00,,---,0.00,VWS V14.00,2013-01-11 17:13:00,
2013-01-11 11:19:00,50.5,46.8,29.00,SSE,163,8.1,8.7,87,0.00,,---,0.00,VWS V14.00,2013-01-11 17:19:00,
2013-01-11 11:25:00,51.8,47.4,29.00,SSE,153,6.3,8.1,85,0.00,,---,0.00,VWS V14.00,2013-01-11 17:25:00,
2013-01-11 11:31:00,52.3,48.0,29.00,SE,139,5.8,8.7,85,0.00,,---,0.00,VWS V14.00,2013-01-11 17:31:00,
2013-01-11 11:34:00,52.3,48.0,29.00,SE,139,5.8,8.7,85,0.00,,---,0.00,VWS V14.00,2013-01-11 17:34:00,
2013-01-11 11:40:00,52.9,47.8,29.00,SSE,165,4.9,5.8,83,0.00,,---,0.00,VWS V14.00,2013-01-11 17:40:00,
2013-01-11 11:43:00,52.9,47.8,29.00,South,171,5.8,6.3,83,0.00,,---,0.00,VWS V14.00,2013-01-11 17:43:00,
2013-01-11 11:46:00,52.9,47.8,29.00,SSE,165,6.3,6.3,83,0.00,,---,0.00,VWS V14.00,2013-01-11 17:46:00,
2013-01-11 11:49:00,53.6,48.2,29.00,SSE,164,6.3,6.3,82,0.00,,---,0.00,VWS V14.00,2013-01-11 17:49:00,
2013-01-11 11:55:00,53.8,48.4,29.00,SSE,148,7.6,7.6,82,0.00,,---,0.00,VWS V14.00,2013-01-11 17:55:00,
2013-01-11 11:58:00,54.3,48.6,29.00,SSE,148,7.6,7.6,81,0.00,,---,0.00,VWS V14.00,2013-01-11 17:58:00,
2013-01-11 12:01:00,54.3,48.6,29.00,SE,146,5.4,7.6,81,0.00,,---,0.00,VWS V14.00,2013-01-11 18:01:00,
2013-01-11 12:04:00,55.0,48.6,29.00,SE,146,5.4,7.6,79,0.00,,---,0.00,VWS V14.00,2013-01-11 18:04:00,
2013-01-11 12:07:00,55.2,48.8,29.00,South,171,6.3,6.3,79,0.00,,---,0.00,VWS V14.00,2013-01-11 18:07:00,
2013-01-11 12:10:00,55.2,48.5,29.00,South,169,6.3,6.3,78,0.00,,---,0.00,VWS V14.00,2013-01-11 18:10:00,
2013-01-11 12:13:00,55.4,48.3,29.00,South,169,6.3,6.3,77,0.00,,---,0.00,VWS V14.00,2013-01-11 18:13:00,
2013-01-11 12:19:00,55.6,48.5,29.00,South,169,6.3,6.3,77,0.00,,---,0.00,VWS V14.00,2013-01-11 18:19:00,
2013-01-11 12:22:00,55.9,48.1,29.00,South,169,8.1,8.1,75,0.00,,---,0.00,VWS V14.00,2013-01-11 18:22:00,
2013-01-11 12:28:00,55.9,47.8,28.97,SE,142,8.3,8.3,74,0.00,,---,0.00,VWS V14.00,2013-01-11 18:28:00,
2013-01-11 12:31:00,55.9,47.8,28.97,SW,235,7.2,8.3,74,0.00,,---,0.00,VWS V14.00,2013-01-11 18:31:00,
2013-01-11 12:34:00,55.9,47.4,28.97,South,179,7.6,8.3,73,0.00,,---,0.00,VWS V14.00,2013-01-11 18:34:00,
2013-01-11 12:40:00,55.9,47.4,28.97,SE,133,8.1,8.1,73,0.00,,---,0.00,VWS V14.00,2013-01-11 18:40:00,
2013-01-11 12:46:00,56.5,47.9,28.97,SSE,151,5.8,8.1,73,0.00,,---,0.00,VWS V14.00,2013-01-11 18:46:00,
2013-01-11 12:49:00,56.8,48.3,28.97,South,173,5.8,8.1,73,0.00,,---,0.00,VWS V14.00,2013-01-11 18:49:00,
2013-01-11 12:55:00,57.5,48.6,28.94,SSE,156,5.4,5.8,72,0.00,,---,0.00,VWS V14.00,2013-01-11 18:55:00,
2013-01-11 13:01:00,57.7,48.8,28.94,SSE,151,6.3,7.6,72,0.00,,---,0.00,VWS V14.00,2013-01-11 19:01:00,
2013-01-11 13:04:00,58.1,48.7,28.94,SSE,167,5.8,7.6,71,0.00,,---,0.00,VWS V14.00,2013-01-11 19:04:00,
2013-01-11 13:10:00,58.4,48.7,28.94,SSE,155,7.6,7.6,70,0.00,,---,0.00,VWS V14.00,2013-01-11 19:10:00,
2013-01-11 13:13:00,58.4,48.3,28.94,SE,138,7.6,7.6,69,0.00,,---,0.00,VWS V14.00,2013-01-11 19:13:00,
2013-01-11 13:16:00,58.4,47.9,28.94,SSE,156,8.1,8.1,68,0.00,,---,0.00,VWS V14.00,2013-01-11 19:16:00,
2013-01-11 13:19:00,58.4,47.9,28.94,South,179,7.6,7.6,68,0.00,,---,0.00,VWS V14.00,2013-01-11 19:19:00,
2013-01-11 13:22:00,58.1,47.6,28.94,South,183,7.6,8.1,68,0.00,,---,0.00,VWS V14.00,2013-01-11 19:22:00,
2013-01-11 13:28:00,58.1,47.6,28.94,SE,137,6.3,8.1,68,0.00,,---,0.00,VWS V14.00,2013-01-11 19:28:00,
2013-01-11 13:31:00,59.0,48.0,28.94,SSE,149,7.6,8.1,67,0.00,,---,0.00,VWS V14.00,2013-01-11 19:31:00,
2013-01-11 13:34:00,59.2,48.2,28.94,SSE,166,6.3,8.1,67,0.00,,---,0.00,VWS V14.00,2013-01-11 19:34:00,
2013-01-11 13:37:00,59.3,48.4,28.94,SSE,159,5.4,6.3,67,0.00,,---,0.00,VWS V14.00,2013-01-11 19:37:00,
2013-01-11 13:40:00,59.7,48.3,28.94,SSE,159,5.4,6.3,66,0.00,,---,0.00,VWS V14.00,2013-01-11 19:40:00,
2013-01-11 13:43:00,59.9,48.5,28.94,SSE,163,10.1,10.1,66,0.00,,---,0.00,VWS V14.00,2013-01-11 19:43:00,
2013-01-11 13:46:00,60.4,47.4,28.94,SE,138,6.3,10.1,62,0.00,,---,0.00,VWS V14.00,2013-01-11 19:46:00,
2013-01-11 13:53:00,60.8,46.8,28.94,SSE,168,7.2,8.1,60,0.00,,---,0.00,VWS V14.00,2013-01-11 19:53:00,
2013-01-11 13:56:00,61.3,46.4,28.94,SSE,168,7.2,8.1,58,0.00,,---,0.00,VWS V14.00,2013-01-11 19:56:00,
2013-01-11 13:59:00,61.3,46.4,28.94,SE,146,5.8,8.1,58,0.00,,---,0.00,VWS V14.00,2013-01-11 19:59:00,
2013-01-11 14:02:00,61.3,46.4,28.94,SE,146,5.8,8.1,58,0.00,,---,0.00,VWS V14.00,2013-01-11 20:02:00,
2013-01-11 14:05:00,61.9,46.0,28.94,SSE,156,5.8,5.8,56,0.00,,---,0.00,VWS V14.00,2013-01-11 20:05:00,
2013-01-11 14:08:00,61.9,46.0,28.94,SSE,167,5.8,5.8,56,0.00,,---,0.00,VWS V14.00,2013-01-11 20:08:00,
2013-01-11 14:11:00,61.9,46.0,28.94,SSE,168,10.5,10.5,56,0.00,,---,0.00,VWS V14.00,2013-01-11 20:11:00,
2013-01-11 14:17:00,62.2,45.4,28.94,SSE,167,8.1,10.5,54,0.00,,---,0.00,VWS V14.00,2013-01-11 20:17:00,
2013-01-11 14:20:00,62.6,45.7,28.94,SSE,160,6.3,6.3,54,0.00,,---,0.00,VWS V14.00,2013-01-11 20:20:00,
2013-01-11 14:23:00,62.6,45.2,28.94,SSE,156,8.1,8.1,53,0.00,,---,0.00,VWS V14.00,2013-01-11 20:23:00,
2013-01-11 14:26:00,62.6,45.2,28.94,South,172,8.3,8.3,53,0.00,,---,0.00,VWS V14.00,2013-01-11 20:26:00,
2013-01-11 14:34:00,62.9,45.1,28.94,South,181,8.7,10.5,52,0.00,,---,0.00,VWS V14.00,2013-01-11 20:34:00,
2013-01-11 14:39:00,63.3,44.9,28.94,SSE,151,6.3,8.7,51,0.00,,---,0.00,VWS V14.00,2013-01-11 20:39:00,
2013-01-11 14:42:00,63.3,44.9,28.94,South,172,7.6,8.7,51,0.00,,---,0.00,VWS V14.00,2013-01-11 20:42:00,
2013-01-11 14:48:00,63.1,44.7,28.94,SSE,158,8.1,8.7,51,0.00,,---,0.00,VWS V14.00,2013-01-11 20:48:00,
2013-01-11 14:49:00,63.1,44.7,28.94,SSE,158,8.1,8.7,51,0.00,,---,0.00,VWS V14.00,2013-01-11 20:49:00,
2013-01-11 14:54:00,63.1,44.7,28.94,SSE,164,10.1,10.1,51,0.00,,---,0.00,VWS V14.00,2013-01-11 20:54:00,
2013-01-11 15:00:00,63.1,44.2,28.94,SE,146,6.3,10.1,50,0.00,,---,0.00,VWS V14.00,2013-01-11 21:00:00,
2013-01-11 15:03:00,63.3,44.4,28.94,SE,146,6.3,10.1,50,0.00,,---,0.00,VWS V14.00,2013-01-11 21:03:00,
2013-01-11 15:06:00,63.3,44.9,28.94,SE,146,6.3,6.3,51,0.00,,---,0.00,VWS V14.00,2013-01-11 21:06:00,
2013-01-11 15:09:00,63.1,44.7,28.94,South,180,5.4,6.3,51,0.00,,---,0.00,VWS V14.00,2013-01-11 21:09:00,
2013-01-11 15:12:00,63.1,44.7,28.94,SE,132,5.4,6.3,51,0.00,,---,0.00,VWS V14.00,2013-01-11 21:12:00,
2013-01-11 15:15:00,63.1,44.7,28.94,SE,132,5.4,6.3,51,0.00,,---,0.00,VWS V14.00,2013-01-11 21:15:00,
2013-01-11 15:19:00,63.1,44.7,28.94,SSE,151,3.1,6.3,51,0.00,,---,0.00,VWS V14.00,2013-01-11 21:19:00,
2013-01-11 15:21:00,63.1,44.7,28.94,South,173,5.8,5.8,51,0.00,,---,0.00,VWS V14.00,2013-01-11 21:21:00,
2013-01-11 15:24:00,63.1,44.7,28.94,South,173,5.8,5.8,51,0.00,,---,0.00,VWS V14.00,2013-01-11 21:24:00,
2013-01-11 15:27:00,63.1,44.7,28.94,South,172,8.3,8.3,51,0.00,,---,0.00,VWS V14.00,2013-01-11 21:27:00,
2013-01-11 15:30:00,62.9,44.0,28.94,South,172,8.3,8.3,50,0.00,,---,0.00,VWS V14.00,2013-01-11 21:30:00,
2013-01-11 15:33:00,62.8,43.9,28.94,South,172,8.3,8.3,50,0.00,,---,0.00,VWS V14.00,2013-01-11 21:33:00,
2013-01-11 15:34:00,62.8,43.9,28.94,South,172,8.3,8.3,50,0.00,,---,0.00,VWS V14.00,2013-01-11 21:34:00,
2013-01-11 15:42:00,62.4,43.5,28.94,SE,145,5.8,8.3,50,0.00,,---,0.00,VWS V14.00,2013-01-11 21:42:00,
2013-01-11 15:48:00,62.2,43.4,28.94,SE,126,6.3,8.3,50,0.00,,---,0.00,VWS V14.00,2013-01-11 21:48:00,
2013-01-11 15:51:00,62.2,43.4,28.94,SSE,160,5.8,6.3,50,0.00,,---,0.00,VWS V14.00,2013-01-11 21:51:00,
2013-01-11 15:57:00,61.1,43.4,28.94,South,180,7.2,7.2,52,0.00,,---,0.00,VWS V14.00,2013-01-11 21:57:00,
2013-01-11 16:00:00,61.1,43.4,28.94,SE,140,5.8,7.2,52,0.00,,---,0.00,VWS V14.00,2013-01-11 22:00:00,
2013-01-11 16:03:00,61.1,43.4,28.94,SE,140,5.8,7.2,52,0.00,,---,0.00,VWS V14.00,2013-01-11 22:03:00,
2013-01-11 16:04:00,61.1,43.4,28.94,SSE,162,5.4,7.2,52,0.00,,---,0.00,VWS V14.00,2013-01-11 22:04:00,
2013-01-11 16:09:00,60.2,43.5,28.94,SE,140,3.6,6.3,54,0.00,,---,0.00,VWS V14.00,2013-01-11 22:09:00,
2013-01-11 16:12:00,60.1,43.4,28.94,SE,140,3.6,6.3,54,0.00,,---,0.00,VWS V14.00,2013-01-11 22:12:00,
2013-01-11 16:18:00,60.1,43.4,28.94,SSE,158,5.4,6.3,54,0.00,,---,0.00,VWS V14.00,2013-01-11 22:18:00,
2013-01-11 16:19:00,60.1,43.4,28.94,SSE,158,5.4,6.3,54,0.00,,---,0.00,VWS V14.00,2013-01-11 22:19:00,
2013-01-11 16:24:00,59.9,43.7,28.91,SSE,150,6.3,6.3,55,0.00,,---,0.00,VWS V14.00,2013-01-11 22:24:00,
2013-01-11 16:27:00,59.7,43.5,28.91,SE,135,4.9,6.3,55,0.00,,---,0.00,VWS V14.00,2013-01-11 22:27:00,
2013-01-11 16:30:00,59.7,43.5,28.91,SSE,161,3.6,6.3,55,0.00,,---,0.00,VWS V14.00,2013-01-11 22:30:00,
2013-01-11 16:33:00,59.7,43.5,28.91,South,169,5.4,6.3,55,0.00,,---,0.00,VWS V14.00,2013-01-11 22:33:00,
2013-01-11 16:39:00,59.2,44.0,28.91,SSW,203,5.8,6.3,57,0.00,,---,0.00,VWS V14.00,2013-01-11 22:39:00,
2013-01-11 16:45:00,59.0,43.8,28.91,SE,144,5.8,8.1,57,0.00,,---,0.00,VWS V14.00,2013-01-11 22:45:00,
2013-01-11 16:51:00,58.8,44.1,28.91,SE,137,6.3,6.3,58,0.00,,---,0.00,VWS V14.00,2013-01-11 22:51:00,
2013-01-11 16:54:00,58.8,44.1,28.91,SSE,150,6.3,6.3,58,0.00,,---,0.00,VWS V14.00,2013-01-11 22:54:00,
2013-01-11 17:00:00,58.6,44.3,28.91,SSE,150,6.3,6.3,59,0.00,,---,0.00,VWS V14.00,2013-01-11 23:00:00,
2013-01-11 17:03:00,58.6,44.3,28.91,SSE,150,6.3,6.3,59,0.00,,---,0.00,VWS V14.00,2013-01-11 23:03:00,
2013-01-11 17:04:00,58.6,44.3,28.91,SE,146,7.6,7.6,59,0.00,,---,0.00,VWS V14.00,2013-01-11 23:04:00,
2013-01-11 17:06:00,58.6,44.3,28.91,SSE,159,9.2,10.5,59,0.00,,---,0.00,VWS V14.00,2013-01-11 23:06:00,
2013-01-11 17:09:00,58.6,44.3,28.91,SSE,159,9.2,10.5,59,0.00,,---,0.00,VWS V14.00,2013-01-11 23:09:00,
2013-01-11 17:12:00,58.4,44.2,28.91,SSE,159,9.2,10.5,59,0.00,,---,0.00,VWS V14.00,2013-01-11 23:12:00,
2013-01-11 17:15:00,58.4,43.7,28.91,ESE,114,6.7,10.5,58,0.00,,---,0.00,VWS V14.00,2013-01-11 23:15:00,
2013-01-11 17:18:00,58.3,43.6,28.91,SE,145,7.6,10.5,58,0.00,,---,0.00,VWS V14.00,2013-01-11 23:18:00,
2013-01-11 17:21:00,58.1,43.4,28.91,South,172,6.3,8.7,58,0.00,,---,0.00,VWS V14.00,2013-01-11 23:21:00,
2013-01-11 17:27:00,58.1,43.4,28.94,SSE,148,8.1,9.6,58,0.00,,---,0.00,VWS V14.00,2013-01-11 23:27:00,
2013-01-11 17:33:00,58.1,42.9,28.94,SSW,200,8.3,9.6,57,0.00,,---,0.00,VWS V14.00,2013-01-11 23:33:00,
2013-01-11 17:36:00,57.9,42.8,28.94,SSE,153,7.6,13.2,57,0.00,,---,0.00,VWS V14.00,2013-01-11 23:36:00,
2013-01-11 17:39:00,57.7,42.6,28.94,SSE,158,8.1,13.2,57,0.00,,---,0.00,VWS V14.00,2013-01-11 23:39:00,
2013-01-11 17:42:00,57.7,42.6,28.94,SSE,148,5.8,13.2,57,0.00,,---,0.00,VWS V14.00,2013-01-11 23:42:00,
2013-01-11 17:48:00,57.4,42.7,28.94,South,177,9.6,13.2,58,0.00,,---,0.00,VWS V14.00,2013-01-11 23:48:00,
2013-01-11 17:49:00,57.4,42.7,28.94,South,177,9.6,13.2,58,0.00,,---,0.00,VWS V14.00,2013-01-11 23:49:00,
2013-01-11 17:54:00,57.2,42.5,28.94,SSE,168,7.6,9.6,58,0.00,,---,0.00,VWS V14.00,2013-01-11 23:54:00,
2013-01-11 17:57:00,57.2,42.5,28.94,SSE,155,5.4,9.6,58,0.00,,---,0.00,VWS V14.00,2013-01-11 23:57:00,
2013-01-11 18:00:00,57.2,42.5,28.94,South,190,7.6,9.6,58,0.00,,---,0.00,VWS V14.00,2013-01-12 00:00:00,
2013-01-11 18:04:00,56.8,42.7,28.94,South,172,6.3,9.6,59,0.00,,---,0.00,VWS V14.00,2013-01-12 00:04:00,
2013-01-11 18:07:00,56.8,42.7,28.94,SSE,163,8.1,8.1,59,0.00,,---,0.00,VWS V14.00,2013-01-12 00:07:00,
2013-01-11 18:10:00,56.5,42.8,28.94,SSE,159,6.3,8.1,60,0.00,,---,0.00,VWS V14.00,2013-01-12 00:10:00,
2013-01-11 18:16:00,56.1,42.8,28.94,SSE,166,5.8,8.1,61,0.00,,---,0.00,VWS V14.00,2013-01-12 00:16:00,
2013-01-11 18:19:00,56.1,42.8,28.94,SSE,166,5.8,8.1,61,0.00,,---,0.00,VWS V14.00,2013-01-12 00:19:00,
2013-01-11 18:25:00,55.9,42.7,28.94,SSE,163,5.8,5.8,61,0.00,,---,0.00,VWS V14.00,2013-01-12 00:25:00,
2013-01-11 18:31:00,55.7,42.9,28.94,South,180,6.3,6.3,62,0.00,,---,0.00,VWS V14.00,2013-01-12 00:31:00,
2013-01-11 18:34:00,55.7,42.9,28.94,South,180,6.3,6.3,62,0.00,,---,0.00,VWS V14.00,2013-01-12 00:34:00,
2013-01-11 18:40:00,55.7,42.9,28.94,South,180,6.3,6.3,62,0.00,,---,0.00,VWS V14.00,2013-01-12 00:40:00,
2013-01-11 18:46:00,55.7,42.9,28.94,SSE,158,8.7,8.7,62,0.00,,---,0.00,VWS V14.00,2013-01-12 00:46:00,
2013-01-11 18:49:00,55.7,42.5,28.94,SSE,147,8.7,8.7,61,0.00,,---,0.00,VWS V14.00,2013-01-12 00:49:00,
2013-01-11 18:52:00,55.9,42.7,28.94,SSE,147,8.7,8.7,61,0.00,,---,0.00,VWS V14.00,2013-01-12 00:52:00,
2013-01-11 18:58:00,55.9,42.7,28.94,SSE,161,5.4,8.7,61,0.00,,---,0.00,VWS V14.00,2013-01-12 00:58:00,
2013-01-11 19:01:00,55.9,42.7,28.94,SSE,157,8.3,8.7,61,0.00,,---,0.00,VWS V14.00,2013-01-12 01:01:00,
2013-01-11 19:07:00,55.9,42.2,28.94,South,176,8.7,8.7,60,0.00,,---,0.00,VWS V14.00,2013-01-12 01:07:00,
2013-01-11 19:10:00,55.9,42.2,28.94,South,176,8.7,8.7,60,0.00,,---,0.00,VWS V14.00,2013-01-12 01:10:00,
2013-01-11 19:13:00,55.9,42.2,28.94,South,176,8.7,8.7,60,0.00,,---,0.00,VWS V14.00,2013-01-12 01:13:00,
2013-01-11 19:16:00,55.9,42.7,28.94,South,176,8.7,8.7,61,0.00,,---,0.00,VWS V14.00,2013-01-12 01:16:00,
2013-01-11 19:19:00,55.9,42.7,28.94,South,183,8.3,8.7,61,0.00,,---,0.00,VWS V14.00,2013-01-12 01:19:00,
2013-01-11 19:22:00,55.9,42.7,28.94,South,183,8.3,8.3,61,0.00,,---,0.00,VWS V14.00,2013-01-12 01:22:00,
2013-01-11 19:25:00,55.9,42.7,28.94,SSE,148,8.1,8.3,61,0.00,,---,0.00,VWS V14.00,2013-01-12 01:25:00,
2013-01-11 19:31:00,55.7,42.5,28.94,South,169,7.6,8.3,61,0.00,,---,0.00,VWS V14.00,2013-01-12 01:31:00,
2013-01-11 19:34:00,55.7,42.9,28.94,South,188,8.3,8.3,62,0.00,,---,0.00,VWS V14.00,2013-01-12 01:34:00,
2013-01-11 19:37:00,55.7,42.9,28.94,SE,146,11.0,11.0,62,0.00,,---,0.00,VWS V14.00,2013-01-12 01:37:00,
2013-01-11 19:40:00,55.7,42.9,28.94,SSE,165,7.6,11.0,62,0.00,,---,0.00,VWS V14.00,2013-01-12 01:40:00,
2013-01-11 19:46:00,55.7,43.3,28.94,SSE,152,8.1,11.0,63,0.00,,---,0.00,VWS V14.00,2013-01-12 01:46:00,
2013-01-11 19:52:00,55.7,43.8,28.94,SSE,151,7.6,8.1,64,0.00,,---,0.00,VWS V14.00,2013-01-12 01:52:00,
2013-01-11 19:58:00,55.7,43.8,28.94,SSE,159,6.3,8.7,64,0.00,,---,0.00,VWS V14.00,2013-01-12 01:58:00,
2013-01-11 20:01:00,55.7,43.8,28.94,SSE,159,6.3,8.7,64,0.00,,---,0.00,VWS V14.00,2013-01-12 02:01:00,
2013-01-11 20:04:00,55.6,44.0,28.94,SSE,159,6.3,8.7,65,0.00,,---,0.00,VWS V14.00,2013-01-12 02:04:00,
2013-01-11 20:07:00,55.6,44.0,28.94,South,187,7.2,7.2,65,0.00,,---,0.00,VWS V14.00,2013-01-12 02:07:00,
2013-01-11 20:13:00,55.6,44.4,28.94,SSE,164,7.6,8.1,66,0.00,,---,0.00,VWS V14.00,2013-01-12 02:13:00,
2013-01-11 20:19:00,55.6,44.8,28.94,SSE,167,10.5,10.5,67,0.00,,---,0.00,VWS V14.00,2013-01-12 02:19:00,
2013-01-11 20:22:00,55.6,44.8,28.94,SSE,167,10.5,10.5,67,0.00,,---,0.00,VWS V14.00,2013-01-12 02:22:00,
2013-01-11 20:25:00,55.4,45.0,28.94,SE,146,6.3,10.5,68,0.00,,---,0.00,VWS V14.00,2013-01-12 02:25:00,
2013-01-11 20:28:00,55.4,45.0,28.94,SE,132,8.7,10.5,68,0.00,,---,0.00,VWS V14.00,2013-01-12 02:28:00,
2013-01-11 20:34:00,55.4,45.4,28.94,SE,142,8.7,10.5,69,0.00,,---,0.00,VWS V14.00,2013-01-12 02:34:00,
2013-01-11 20:37:00,55.4,45.4,28.94,SSE,160,10.1,10.1,69,0.00,,---,0.00,VWS V14.00,2013-01-12 02:37:00,
2013-01-11 20:40:00,55.4,45.4,28.94,SSE,160,10.1,10.1,69,0.00,,---,0.00,VWS V14.00,2013-01-12 02:40:00,
2013-01-11 20:43:00,55.2,45.2,28.94,South,170,10.1,10.1,69,0.00,,---,0.00,VWS V14.00,2013-01-12 02:43:00,
2013-01-11 20:49:00,55.4,45.8,28.94,SE,146,8.1,10.1,70,0.00,,---,0.00,VWS V14.00,2013-01-12 02:49:00,
2013-01-11 20:52:00,55.4,45.8,28.94,SSE,161,7.6,8.1,70,0.00,,---,0.00,VWS V14.00,2013-01-12 02:52:00,
2013-01-11 20:58:00,55.4,45.8,28.94,SSE,165,7.6,8.1,70,0.00,,---,0.00,VWS V14.00,2013-01-12 02:58:00,
2013-01-11 21:01:00,55.4,45.8,28.94,SSE,165,7.6,8.1,70,0.00,,---,0.00,VWS V14.00,2013-01-12 03:01:00,
2013-01-11 21:04:00,55.4,45.8,28.94,ESE,120,7.6,8.1,70,0.00,,---,0.00,VWS V14.00,2013-01-12 03:04:00,
2013-01-11 21:07:00,55.4,45.8,28.94,South,190,9.2,9.2,70,0.00,,---,0.00,VWS V14.00,2013-01-12 03:07:00,
2013-01-11 21:10:00,55.6,46.0,28.94,South,190,9.2,9.2,70,0.00,,---,0.00,VWS V14.00,2013-01-12 03:10:00,
2013-01-11 21:13:00,55.6,46.0,28.94,South,190,9.2,9.2,70,0.00,,---,0.00,VWS V14.00,2013-01-12 03:13:00,
2013-01-11 21:16:00,55.6,46.0,28.94,SSE,150,8.7,9.2,70,0.00,,---,0.00,VWS V14.00,2013-01-12 03:16:00,
2013-01-11 21:22:00,55.6,46.3,28.94,SE,130,8.3,8.7,71,0.00,,---,0.00,VWS V14.00,2013-01-12 03:22:00,
2013-01-11 21:28:00,55.6,46.3,28.94,SSE,148,8.7,8.7,71,0.00,,---,0.00,VWS V14.00,2013-01-12 03:28:00,
2013-01-11 21:31:00,55.6,46.3,28.94,SSE,152,5.4,8.7,71,0.00,,---,0.00,VWS V14.00,2013-01-12 03:31:00,
2013-01-11 21:34:00,55.6,46.3,28.94,SE,143,4.9,8.7,71,0.00,,---,0.00,VWS V14.00,2013-01-12 03:34:00,
2013-01-11 21:37:00,55.6,46.3,28.94,SE,143,4.9,4.9,71,0.00,,---,0.00,VWS V14.00,2013-01-12 03:37:00,
2013-01-11 21:43:00,55.7,46.5,28.94,SSE,152,6.3,6.7,71,0.00,,---,0.00,VWS V14.00,2013-01-12 03:43:00,
2013-01-11 21:46:00,55.6,46.3,28.94,SSE,148,6.3,6.7,71,0.00,,---,0.00,VWS V14.00,2013-01-12 03:46:00,
2013-01-11 21:50:00,55.7,46.5,28.97,South,171,6.3,6.3,71,0.00,,---,0.00,VWS V14.00,2013-01-12 03:50:00,
2013-01-11 21:56:00,55.7,46.5,28.97,South,189,8.7,8.7,71,0.00,,---,0.00,VWS V14.00,2013-01-12 03:56:00,
2013-01-11 21:59:00,55.7,46.5,28.97,South,189,8.7,8.7,71,0.00,,---,0.00,VWS V14.00,2013-01-12 03:59:00,
2013-01-11 22:02:00,55.7,46.5,28.97,South,189,8.7,8.7,71,0.00,,---,0.00,VWS V14.00,2013-01-12 04:02:00,
2013-01-11 22:05:00,55.7,46.5,28.97,SSE,163,6.3,6.3,71,0.00,,---,0.00,VWS V14.00,2013-01-12 04:05:00,
2013-01-11 22:11:00,55.7,46.5,28.97,SE,125,7.6,7.6,71,0.00,,---,0.00,VWS V14.00,2013-01-12 04:11:00,
2013-01-11 22:14:00,55.7,46.5,28.97,SSE,164,5.4,7.6,71,0.00,,---,0.00,VWS V14.00,2013-01-12 04:14:00,
2013-01-11 22:17:00,55.7,46.5,28.97,SE,146,7.6,7.6,71,0.00,,---,0.00,VWS V14.00,2013-01-12 04:17:00,
2013-01-11 22:19:00,55.7,46.5,28.97,SSE,159,7.6,7.6,71,0.00,,---,0.00,VWS V14.00,2013-01-12 04:19:00,
2013-01-11 22:23:00,55.7,46.5,28.97,SSE,159,7.6,7.6,71,0.00,,---,0.00,VWS V14.00,2013-01-12 04:23:00,
2013-01-11 22:26:00,55.7,46.5,28.97,SSE,159,7.6,7.6,71,0.00,,---,0.00,VWS V14.00,2013-01-12 04:26:00,
2013-01-11 22:32:00,55.7,46.5,28.97,SE,145,4.0,7.6,71,0.00,,---,0.00,VWS V14.00,2013-01-12 04:32:00,
2013-01-11 22:34:00,55.7,46.9,28.97,SE,145,4.0,7.6,72,0.00,,---,0.00,VWS V14.00,2013-01-12 04:34:00,
2013-01-11 22:35:00,55.7,46.9,28.97,SE,145,4.0,4.0,72,0.00,,---,0.00,VWS V14.00,2013-01-12 04:35:00,
2013-01-11 22:41:00,55.7,46.9,28.97,SE,145,5.4,5.4,72,0.00,,---,0.00,VWS V14.00,2013-01-12 04:41:00,
2013-01-11 22:44:00,55.7,46.9,28.97,SSE,155,4.9,5.4,72,0.00,,---,0.00,VWS V14.00,2013-01-12 04:44:00,
2013-01-11 22:47:00,55.7,46.9,28.97,SSE,155,4.9,5.4,72,0.00,,---,0.00,VWS V14.00,2013-01-12 04:47:00,
2013-01-11 22:49:00,55.7,46.9,28.97,SSE,155,4.9,5.4,72,0.00,,---,0.00,VWS V14.00,2013-01-12 04:49:00,
2013-01-11 22:50:00,55.7,46.9,28.97,SSE,155,4.9,4.9,72,0.00,,---,0.00,VWS V14.00,2013-01-12 04:50:00,
2013-01-11 22:53:00,55.9,47.0,28.97,South,180,3.1,5.4,72,0.00,,---,0.00,VWS V14.00,2013-01-12 04:53:00,
2013-01-11 22:59:00,55.9,47.0,28.97,SSE,149,5.4,5.4,72,0.00,,---,0.00,VWS V14.00,2013-01-12 04:59:00,
2013-01-11 23:02:00,55.9,47.0,28.97,SE,145,4.9,5.4,72,0.00,,---,0.00,VWS V14.00,2013-01-12 05:02:00,
2013-01-11 23:04:00,55.9,47.0,28.97,SSE,166,7.2,7.2,72,0.00,,---,0.00,VWS V14.00,2013-01-12 05:04:00,
2013-01-11 23:05:00,55.9,47.0,28.97,South,186,6.3,7.2,72,0.00,,---,0.00,VWS V14.00,2013-01-12 05:05:00,
2013-01-11 23:11:00,55.9,47.0,28.97,South,170,5.4,7.2,72,0.00,,---,0.00,VWS V14.00,2013-01-12 05:11:00,
2013-01-11 23:14:00,55.9,47.0,28.97,South,178,4.9,7.2,72,0.00,,---,0.00,VWS V14.00,2013-01-12 05:14:00,
2013-01-11 23:17:00,55.9,47.0,28.97,South,178,4.9,7.2,72,0.00,,---,0.00,VWS V14.00,2013-01-12 05:17:00,
2013-01-11 23:20:00,55.4,46.9,28.97,South,178,4.9,4.9,73,0.00,,---,0.00,VWS V14.00,2013-01-12 05:20:00,
2013-01-11 23:23:00,55.4,46.9,28.97,South,185,4.0,4.9,73,0.00,,---,0.00,VWS V14.00,2013-01-12 05:23:00,
2013-01-11 23:26:00,55.4,46.9,28.97,South,176,8.1,8.1,73,0.00,,---,0.00,VWS V14.00,2013-01-12 05:26:00,
2013-01-11 23:29:00,55.4,46.9,28.97,South,172,3.1,8.1,73,0.00,,---,0.00,VWS V14.00,2013-01-12 05:29:00,
2013-01-11 23:34:00,55.4,46.9,28.97,SSE,154,7.2,8.1,73,0.00,,---,0.00,VWS V14.00,2013-01-12 05:34:00,
2013-01-11 23:35:00,55.4,46.9,28.97,SSE,154,7.2,7.2,73,0.00,,---,0.00,VWS V14.00,2013-01-12 05:35:00,
2013-01-11 23:41:00,55.4,46.9,28.97,South,172,4.0,7.2,73,0.00,,---,0.00,VWS V14.00,2013-01-12 05:41:00,
2013-01-11 23:44:00,55.4,46.9,28.97,South,190,5.4,7.2,73,0.00,,---,0.00,VWS V14.00,2013-01-12 05:44:00,
2013-01-11 23:49:00,55.4,46.9,28.97,South,173,3.6,7.2,73,0.00,,---,0.00,VWS V14.00,2013-01-12 05:49:00,
2013-01-11 23:50:00,55.4,46.9,28.97,South,173,3.6,3.6,73,0.00,,---,0.00,VWS V14.00,2013-01-12 05:50:00,
2013-01-11 23:56:00,55.4,46.9,28.97,South,176,4.0,5.8,73,0.00,,---,0.00,VWS V14.00,2013-01-12 05:56:00,
2013-01-11 23:59:00,55.4,47.2,28.97,South,189,4.9,5.8,74,0.00,,---,0.00,VWS V14.00,2013-01-12 05:59:00,